Time;durP1;ratioP1;P1;durP2;ratioP2;P2;SDS_P1;SDS_P2;PMS_P1;PMS_P2;Temp;Humidity;BMP_temperature;BMP_pressure;BME280_temperature;BME280_humidity;BME280_pressure;Samples;Min_cycle;Max_cycle;Signal;HPM_P1;HPM_P2
2023/11/16 00:02:12;;;;;;;5.67;3.00;;;;;;;9.50;100.00;99812.80;124676;1105;104236;-77
2023/11/16 00:04:44;;;;;;;7.50;3.43;;;;;;;9.50;100.00;99825.02;124602;1104;104262;-78
2023/11/16 00:07:15;;;;;;;6.93;3.63;;;;;;;9.48;100.00;99824.09;124644;1105;102384;-78
2023/11/16 00:09:47;;;;;;;6.57;3.37;;;;;;;9.46;100.00;99829.28;124601;1105;101974;-78
2023/11/16 00:12:19;;;;;;;6.20;3.10;;;;;;;9.45;100.00;99832.73;124705;1105;104270;-78
2023/11/16 00:14:50;;;;;;;6.50;3.50;;;;;;;9.45;100.00;99834.48;124670;1105;102188;-79
2023/11/16 00:17:22;;;;;;;7.33;3.73;;;;;;;9.43;100.00;99833.55;124672;1105;104201;-79
2023/11/16 00:19:53;;;;;;;8.27;3.80;;;;;;;9.42;100.00;99837.01;124717;1105;102027;-80
2023/11/16 00:22:26;;;;;;;7.57;3.53;;;;;;;9.39;100.00;99837.79;124713;1105;104233;-78
2023/11/16 00:24:58;;;;;;;5.90;3.70;;;;;;;9.37;100.00;99841.23;124697;1105;104168;-80
2023/11/16 00:27:29;;;;;;;8.53;3.70;;;;;;;9.35;100.00;99838.56;124666;1105;104251;-79
2023/11/16 00:30:03;;;;;;;6.77;3.80;;;;;;;9.34;100.00;99835.03;124681;1105;104188;-79
2023/11/16 00:32:34;;;;;;;6.95;3.85;;;;;;;9.32;100.00;99844.58;124672;1106;102044;-80
2023/11/16 00:35:07;;;;;;;9.53;4.53;;;;;;;9.31;100.00;99836.69;124612;1105;102710;-78
2023/11/16 00:37:39;;;;;;;7.23;4.10;;;;;;;9.31;100.00;99850.65;124665;1105;102832;-78
2023/11/16 00:40:13;;;;;;;9.40;4.27;;;;;;;9.29;100.00;99848.85;124604;1105;102073;-79
2023/11/16 00:42:44;;;;;;;9.47;4.47;;;;;;;9.27;100.00;99843.56;124608;1105;104300;-79
2023/11/16 00:45:16;;;;;;;8.73;4.70;;;;;;;9.27;100.00;99850.51;124621;1105;104308;-77
2023/11/16 00:47:47;;;;;;;9.47;4.90;;;;;;;9.24;100.00;99859.18;124523;1105;104389;-76
2023/11/16 00:50:19;;;;;;;12.60;4.90;;;;;;;9.24;100.00;99867.03;124594;1105;104217;-77
2023/11/16 00:52:50;;;;;;;10.03;4.60;;;;;;;9.24;100.00;99864.42;124617;1105;102066;-78
2023/11/16 00:55:22;;;;;;;11.60;5.23;;;;;;;9.25;100.00;99863.55;124681;1105;102106;-77
2023/11/16 00:57:55;;;;;;;11.33;4.87;;;;;;;9.25;100.00;99860.94;124604;1105;102055;-78
2023/11/16 01:00:28;;;;;;;11.10;5.43;;;;;;;9.25;100.00;99863.55;124504;1105;104297;-79
2023/11/16 01:03:03;;;;;;;10.47;5.43;;;;;;;9.25;100.00;99862.67;124634;1105;101980;-79
2023/11/16 01:05:35;;;;;;;10.70;5.40;;;;;;;9.24;100.00;99864.42;124663;1105;104204;-79
2023/11/16 01:08:09;;;;;;;11.40;5.53;;;;;;;9.25;100.00;99871.41;124668;1105;101887;-78
2023/11/16 01:10:43;;;;;;;12.90;5.90;;;;;;;9.24;100.00;99873.98;124666;1105;102441;-79
2023/11/16 01:13:22;;;;;;;12.95;6.12;;;;;;;9.23;100.00;99873.10;124750;1105;104353;-77
2023/11/16 01:15:56;;;;;;;13.23;6.40;;;;;;;9.21;100.00;99879.12;124603;1105;104240;-78
2023/11/16 01:18:32;;;;;;;11.13;5.37;;;;;;;9.18;100.00;99870.34;124652;1105;102387;-80
2023/11/16 01:21:08;;;;;;;12.20;5.87;;;;;;;9.17;100.00;99872.91;124640;1105;102224;-79
2023/11/16 01:23:41;;;;;;;13.30;5.67;;;;;;;9.17;100.00;99878.14;124615;1105;102064;-79
2023/11/16 01:26:15;;;;;;;13.37;5.93;;;;;;;9.13;100.00;99881.49;124613;1105;104365;-80
2023/11/16 01:28:50;;;;;;;12.50;6.03;;;;;;;9.10;100.00;99870.92;124641;1105;104198;-79
2023/11/16 01:31:22;;;;;;;12.53;5.83;;;;;;;9.10;100.00;99863.08;124711;1105;111998;-77
2023/11/16 01:33:53;;;;;;;13.80;6.13;;;;;;;9.09;100.00;99862.20;124674;1105;101794;-79
2023/11/16 01:36:26;;;;;;;12.30;6.07;;;;;;;9.09;100.00;99861.32;124706;1105;102099;-79
2023/11/16 01:38:58;;;;;;;12.40;6.30;;;;;;;9.09;100.00;99864.81;124580;1105;102003;-80
2023/11/16 01:41:30;;;;;;;12.20;5.60;;;;;;;9.09;100.00;99866.55;124688;1105;101960;-79
2023/11/16 01:44:02;;;;;;;17.07;6.73;;;;;;;9.07;100.00;99874.36;124664;1105;104303;-79
2023/11/16 01:46:35;;;;;;;11.20;6.10;;;;;;;9.04;100.00;99869.03;124712;1105;102504;-78
2023/11/16 01:49:06;;;;;;;14.23;6.13;;;;;;;9.00;100.00;99875.87;124637;1105;104290;-77
2023/11/16 01:51:43;;;;;;;14.90;6.93;;;;;;;8.98;100.00;99877.56;124643;1105;101996;-78
2023/11/16 01:54:17;;;;;;;15.03;7.17;;;;;;;8.94;100.00;99880.94;124691;1105;102083;-79
2023/11/16 01:56:50;;;;;;;12.40;6.37;;;;;;;8.92;100.00;99879.09;124642;1104;104271;-79
2023/11/16 01:59:22;;;;;;;16.17;7.53;;;;;;;8.89;100.00;99869.41;124673;1105;104268;-79
2023/11/16 02:01:54;;;;;;;16.33;7.30;;;;;;;8.86;100.00;99877.16;124631;1105;102044;-79
2023/11/16 02:04:26;;;;;;;16.70;7.20;;;;;;;8.84;100.00;99871.00;124635;1105;104399;-79
2023/11/16 02:07:00;;;;;;;17.03;7.57;;;;;;;8.84;100.00;99881.47;124678;1105;102112;-78
2023/11/16 02:09:31;;;;;;;16.40;6.83;;;;;;;8.81;100.00;99887.47;124594;1105;104204;-79
2023/11/16 02:12:03;;;;;;;15.53;7.30;;;;;;;8.78;100.00;99883.88;124605;1105;104220;-78
2023/11/16 02:14:35;;;;;;;14.30;6.95;;;;;;;8.75;100.00;99882.03;124618;1105;101972;-78
2023/11/16 02:17:06;;;;;;;15.17;6.97;;;;;;;8.70;100.00;99881.01;124652;1105;102111;-78
2023/11/16 02:19:40;;;;;;;14.45;7.20;;;;;;;8.68;100.00;99876.55;124699;1105;104258;-76
2023/11/16 02:22:11;;;;;;;16.40;7.60;;;;;;;8.63;100.00;99885.16;124639;1105;102035;-78
2023/11/16 02:24:45;;;;;;;16.13;7.57;;;;;;;8.59;100.00;99882.38;124639;1105;101977;-78
2023/11/16 02:27:15;;;;;;;;;;;;;;;8.56;100.00;99888.39;124734;1105;102620;-78
2023/11/16 02:29:47;;;;;;;14.63;7.27;;;;;;;8.53;100.00;99888.28;124668;1105;102396;-78
2023/11/16 02:32:20;;;;;;;14.60;7.30;;;;;;;8.50;100.00;99888.17;124658;1105;101960;-79
2023/11/16 02:34:51;;;;;;;16.93;7.43;;;;;;;8.50;100.00;99892.53;124700;1105;104162;-78
2023/11/16 02:37:23;;;;;;;16.07;8.03;;;;;;;8.48;100.00;99905.55;124785;1105;101855;-77
2023/11/16 02:39:55;;;;;;;17.17;7.77;;;;;;;8.47;100.00;99915.95;124682;1105;104300;-80
2023/11/16 02:42:26;;;;;;;15.17;7.57;;;;;;;8.44;100.00;99907.14;124621;1105;102000;-80
2023/11/16 02:44:58;;;;;;;15.97;7.60;;;;;;;8.42;100.00;99910.53;124819;1105;104195;-81
2023/11/16 02:47:30;;;;;;;17.25;7.75;;;;;;;8.41;100.00;99912.27;124795;1105;102317;-77
2023/11/16 02:50:03;;;;;;;15.87;7.57;;;;;;;8.40;100.00;99912.21;124907;1105;104233;-80
2023/11/16 02:52:34;;;;;;;15.33;7.57;;;;;;;8.38;100.00;99912.16;124843;1105;102010;-78
2023/11/16 02:55:08;;;;;;;14.03;7.07;;;;;;;8.36;100.00;99910.31;124836;1105;102282;-78
2023/11/16 02:57:40;;;;;;;16.87;7.58;;;;;;;8.35;100.00;99918.98;124863;1105;104302;-80
2023/11/16 03:00:17;;;;;;;16.33;7.23;;;;;;;8.33;100.00;99916.31;124968;1105;104393;-79
2023/11/16 03:02:49;;;;;;;17.03;7.50;;;;;;;8.34;100.00;99915.48;124859;1105;104195;-79
2023/11/16 03:05:21;;;;;;;14.10;7.43;;;;;;;8.33;100.00;99915.44;124501;1105;104251;-79
2023/11/16 03:07:53;;;;;;;14.97;7.33;;;;;;;8.32;100.00;99922.40;124690;1105;101948;-76
2023/11/16 03:10:25;;;;;;;14.40;7.37;;;;;;;8.30;100.00;99931.89;124759;1105;104236;-78
2023/11/16 03:12:57;;;;;;;14.73;6.97;;;;;;;8.28;100.00;99928.34;124627;1105;104223;-78
2023/11/16 03:15:29;;;;;;;15.80;7.30;;;;;;;8.25;100.00;99938.69;124691;1105;104293;-79
2023/11/16 03:18:00;;;;;;;16.73;7.37;;;;;;;8.24;100.00;99937.81;124620;1104;102148;-78
2023/11/16 03:20:32;;;;;;;13.87;7.33;;;;;;;8.23;100.00;99941.24;124683;1105;104213;-79
2023/11/16 03:23:04;;;;;;;18.47;7.30;;;;;;;8.21;100.00;99942.02;124592;1105;102179;-78
2023/11/16 03:25:36;;;;;;;14.47;7.23;;;;;;;8.21;100.00;99942.02;124654;1105;102438;-78
2023/11/16 03:28:07;;;;;;;14.40;6.87;;;;;;;8.19;100.00;99938.47;124698;1105;103331;-79
2023/11/16 03:30:39;;;;;;;15.77;6.90;;;;;;;8.18;100.00;99937.59;124435;1105;102385;-79
2023/11/16 03:33:12;;;;;;;12.27;6.27;;;;;;;8.17;100.00;99948.86;124700;1104;104210;-79
2023/11/16 03:35:48;;;;;;;16.07;6.67;;;;;;;8.16;100.00;99952.30;124717;1105;102137;-77
2023/11/16 03:38:20;;;;;;;14.30;6.70;;;;;;;8.15;100.00;99955.77;124680;1105;101842;-77
2023/11/16 03:40:52;;;;;;;14.17;6.70;;;;;;;8.15;100.00;99963.61;124656;1105;104371;-78
2023/11/16 03:43:23;;;;;;;13.53;6.80;;;;;;;8.15;100.00;99965.31;124586;1105;104197;-78
2023/11/16 03:45:55;;;;;;;14.03;6.60;;;;;;;8.13;100.00;99967.86;124630;1105;102141;-78
2023/11/16 03:48:26;;;;;;;13.83;6.50;;;;;;;8.12;100.00;99973.95;124640;1105;104287;-77
2023/11/16 03:50:58;;;;;;;12.97;6.47;;;;;;;8.10;100.00;99979.12;124562;1105;104258;-77
2023/11/16 03:53:31;;;;;;;13.43;6.37;;;;;;;8.09;100.00;99976.45;124478;1105;104191;-77
2023/11/16 03:56:04;;;;;;;12.05;6.08;;;;;;;8.07;100.00;99976.39;124584;1105;104207;-77
2023/11/16 03:58:35;;;;;;;10.77;5.67;;;;;;;8.04;100.00;99981.50;124457;1104;104351;-76
2023/11/16 04:01:07;;;;;;;15.47;6.13;;;;;;;8.03;100.00;99989.28;124483;1104;103130;-76
2023/11/16 04:03:39;;;;;;;12.27;6.10;;;;;;;8.02;100.00;99995.33;124500;1105;104246;-77
2023/11/16 04:06:19;;;;;;;12.73;6.23;;;;;;;8.00;100.00;100003.11;124587;1105;102070;-77
2023/11/16 04:08:52;;;;;;;9.50;5.53;;;;;;;7.95;100.00;99991.60;124555;1105;104320;-77
2023/11/16 04:11:25;;;;;;;11.90;5.55;;;;;;;7.96;100.00;100000.31;124473;1105;104331;-76
2023/11/16 04:13:57;;;;;;;12.70;6.23;;;;;;;7.94;100.00;99999.38;124410;1105;104336;-77
2023/11/16 04:16:29;;;;;;;11.30;6.17;;;;;;;7.92;100.00;100008.04;124504;1105;104185;-77
2023/11/16 04:19:02;;;;;;;14.67;6.30;;;;;;;7.88;100.00;100007.86;124307;1106;104329;-76
2023/11/16 04:21:36;;;;;;;12.98;5.72;;;;;;;7.88;100.00;100020.92;124384;1105;102336;-76
2023/11/16 04:24:11;;;;;;;11.50;5.87;;;;;;;7.87;100.00;100020.05;124386;1104;102692;-77
2023/11/16 04:26:42;;;;;;;13.27;6.10;;;;;;;7.86;100.00;100023.48;124475;1105;104185;-78
2023/11/16 04:29:14;;;;;;;12.50;6.10;;;;;;;7.85;100.00;100032.16;124548;1105;104182;-77
2023/11/16 04:31:45;;;;;;;11.30;5.90;;;;;;;7.84;100.00;100025.15;124607;1105;102100;-77
2023/11/16 04:34:17;;;;;;;11.57;5.80;;;;;;;7.84;100.00;100027.77;124669;1104;104227;-77
2023/11/16 04:36:49;;;;;;;11.00;6.43;;;;;;;7.85;100.00;100029.55;124602;1105;104724;-77
2023/11/16 04:39:21;;;;;;;10.33;5.40;;;;;;;7.86;100.00;100030.44;124626;1105;102271;-76
2023/11/16 04:41:52;;;;;;;13.63;5.83;;;;;;;7.88;100.00;100042.73;124631;1105;104233;-78
2023/11/16 04:44:24;;;;;;;12.93;6.33;;;;;;;7.89;100.00;100035.77;124582;1105;104227;-78
2023/11/16 04:46:56;;;;;;;12.13;6.07;;;;;;;7.88;100.00;100042.73;124686;1105;102012;-78
2023/11/16 04:49:27;;;;;;;11.63;6.40;;;;;;;7.86;100.00;100044.37;124661;1105;102260;-78
2023/11/16 04:51:59;;;;;;;11.57;6.00;;;;;;;7.85;100.00;100047.84;124637;1105;102226;-78
2023/11/16 04:54:31;;;;;;;10.67;6.10;;;;;;;7.83;100.00;100048.59;124582;1105;102251;-78
2023/11/16 04:57:02;;;;;;;11.17;6.33;;;;;;;7.80;100.00;100041.52;124610;1105;104182;-78
2023/11/16 04:59:34;;;;;;;14.53;6.27;;;;;;;7.81;100.00;100058.11;124533;1105;104297;-77
2023/11/16 05:02:06;;;;;;;12.20;6.40;;;;;;;7.79;100.00;100055.43;124571;1105;104191;-78
2023/11/16 05:04:37;;;;;;;16.47;6.60;;;;;;;7.78;100.00;100048.41;124480;1105;104210;-76
2023/11/16 05:07:10;;;;;;;13.33;6.40;;;;;;;7.77;100.00;100059.68;124503;1105;104233;-77
2023/11/16 05:09:41;;;;;;;11.77;6.20;;;;;;;7.74;100.00;100046.50;124657;1105;104258;-77
2023/11/16 05:12:13;;;;;;;13.07;5.73;;;;;;;7.72;100.00;100053.39;124624;1105;102028;-77
2023/11/16 05:14:44;;;;;;;12.47;5.67;;;;;;;7.72;100.00;100061.23;124463;1105;104254;-78
2023/11/16 05:17:16;;;;;;;10.43;5.57;;;;;;;7.72;100.00;100074.28;124472;1105;104261;-76
2023/11/16 05:19:48;;;;;;;9.57;5.17;;;;;;;7.72;100.00;100069.06;124715;1105;102103;-78
2023/11/16 05:22:19;;;;;;;9.40;5.37;;;;;;;7.72;100.00;100079.51;124577;1105;104217;-78
2023/11/16 05:24:50;;;;;;;10.80;5.43;;;;;;;7.71;100.00;100076.02;124553;1105;102208;-79
2023/11/16 05:27:22;;;;;;;12.03;4.90;;;;;;;7.70;100.00;100083.79;124580;1105;104233;-77
2023/11/16 05:29:54;;;;;;;8.87;4.67;;;;;;;7.69;100.00;100080.27;124527;1105;104217;-77
2023/11/16 05:32:25;;;;;;;10.50;4.87;;;;;;;7.70;100.00;100089.02;124449;1105;102063;-77
2023/11/16 05:34:57;;;;;;;8.60;4.50;;;;;;;7.70;100.00;100096.84;124682;1105;102358;-76
2023/11/16 05:37:28;;;;;;;10.43;4.50;;;;;;;7.71;100.00;100106.45;124606;1105;104731;-79
2023/11/16 05:40:03;;;;;;;9.77;4.73;;;;;;;7.71;100.00;100117.80;124369;1105;103152;-76
2023/11/16 05:42:35;;;;;;;8.20;4.13;;;;;;;7.74;100.00;100117.02;124587;1105;104198;-76
2023/11/16 05:45:09;;;;;;;7.93;4.30;;;;;;;7.76;100.00;100132.75;124601;1105;102419;-76
2023/11/16 05:47:41;;;;;;;9.30;4.67;;;;;;;7.78;100.00;100134.61;124758;1105;104204;-77
2023/11/16 05:50:14;;;;;;;9.60;4.70;;;;;;;7.83;100.00;100138.29;124610;1105;103160;-78
2023/11/16 05:52:46;;;;;;;8.67;4.43;;;;;;;7.85;100.00;100139.27;124374;1105;104348;-77
2023/11/16 05:55:18;;;;;;;8.00;4.57;;;;;;;7.86;100.00;100148.86;124550;1105;104264;-77
2023/11/16 05:57:50;;;;;;;9.90;4.73;;;;;;;7.87;100.00;100145.44;124536;1105;101996;-78
2023/11/16 06:00:22;;;;;;;8.47;4.70;;;;;;;7.89;100.00;100143.77;124537;1105;101926;-76
2023/11/16 06:02:53;;;;;;;9.63;4.83;;;;;;;7.92;100.00;100135.17;124485;1105;101940;-76
2023/11/16 06:05:26;;;;;;;8.90;4.70;;;;;;;7.95;100.00;100137.91;124405;1105;102096;-78
2023/11/16 06:07:57;;;;;;;7.83;4.50;;;;;;;8.01;99.84;100138.16;124548;1105;104182;-78
2023/11/16 06:10:29;;;;;;;9.07;4.20;;;;;;;8.06;100.00;100136.61;124903;1105;102853;-78
2023/11/16 06:13:03;;;;;;;7.40;3.93;;;;;;;8.14;99.27;100144.76;124856;1104;104413;-82
2023/11/16 06:15:35;;;;;;;8.53;4.10;;;;;;;8.20;99.59;100158.06;124859;1105;102157;-79
2023/11/16 06:18:07;;;;;;;7.27;3.50;;;;;;;8.26;97.64;100155.70;124795;1105;104378;-80
2023/11/16 06:20:39;;;;;;;6.87;3.60;;;;;;;8.35;97.88;100154.27;124879;1105;102032;-79
2023/11/16 06:23:12;;;;;;;5.63;3.40;;;;;;;8.40;95.18;100173.66;124808;1105;102407;-78
2023/11/16 06:25:43;;;;;;;4.47;3.20;;;;;;;8.44;94.71;100173.84;124705;1105;101922;-79
2023/11/16 06:28:16;;;;;;;5.10;3.50;;;;;;;8.48;95.10;100174.88;124709;1105;104029;-78
2023/11/16 06:30:49;;;;;;;7.13;3.70;;;;;;;8.54;94.71;100187.28;124724;1105;102820;-79
2023/11/16 06:33:22;;;;;;;6.30;3.50;;;;;;;8.56;93.35;100190.87;124666;1105;102656;-77
2023/11/16 06:35:54;;;;;;;7.67;3.97;;;;;;;8.58;93.29;100194.42;124664;1105;104290;-77
2023/11/16 06:38:30;;;;;;;7.20;3.40;;;;;;;8.61;94.21;100194.55;124719;1105;102225;-78
2023/11/16 06:41:02;;;;;;;5.67;3.37;;;;;;;8.60;92.81;100196.28;124662;1105;104316;-75
2023/11/16 06:43:36;;;;;;;6.20;3.83;;;;;;;8.60;93.69;100197.98;124592;1105;102943;-76
2023/11/16 06:46:12;;;;;;;6.17;3.10;;;;;;;8.60;93.93;100197.98;124421;1105;104306;-76
2023/11/16 06:48:43;;;;;;;5.97;3.50;;;;;;;8.60;92.77;100206.73;124507;1105;103281;-76
2023/11/16 06:51:22;;;;;;;6.73;3.40;;;;;;;8.62;93.39;100207.68;124494;1105;102514;-77
2023/11/16 06:53:56;;;;;;;6.23;3.40;;;;;;;8.61;90.80;100218.96;124563;1106;103125;-77
2023/11/16 06:56:28;;;;;;;7.67;3.10;;;;;;;8.64;90.94;100226.05;124614;1105;104137;-76
2023/11/16 06:59:04;;;;;;;7.40;3.53;;;;;;;8.65;90.69;100220.00;124688;1106;102738;-78
2023/11/16 07:01:35;;;;;;;6.43;3.70;;;;;;;8.70;90.85;100225.41;124718;1105;102482;-76
2023/11/16 07:04:11;;;;;;;8.83;3.80;;;;;;;8.72;90.72;100236.81;124711;1105;102468;-76
2023/11/16 07:06:43;;;;;;;8.20;4.03;;;;;;;8.71;90.13;100230.70;124771;1105;104195;-77
2023/11/16 07:09:17;;;;;;;5.73;3.60;;;;;;;8.75;89.68;100234.31;124634;1105;102902;-76
2023/11/16 07:11:53;;;;;;;7.73;3.43;;;;;;;8.76;89.61;100242.22;124554;1105;102290;-77
2023/11/16 07:14:25;;;;;;;7.30;4.00;;;;;;;8.79;89.54;100247.58;124495;1105;103422;-76
2023/11/16 07:16:58;;;;;;;5.83;3.50;;;;;;;8.81;88.01;100250.25;124820;1105;102899;-77
2023/11/16 07:19:32;;;;;;;7.47;3.67;;;;;;;8.83;89.64;100248.58;124862;1105;102078;-77
2023/11/16 07:22:03;;;;;;;;;;;;;;;8.87;88.90;100260.95;124694;1105;103057;-76
2023/11/16 07:24:36;;;;;;;8.00;3.87;;;;;;;8.90;89.39;100255.84;124313;1106;104258;-75
2023/11/16 07:27:08;;;;;;;6.20;3.47;;;;;;;8.95;89.37;100253.41;124528;1105;102430;-75
2023/11/16 07:29:42;;;;;;;7.10;3.70;;;;;;;8.99;88.33;100257.90;124689;1105;102437;-73
2023/11/16 07:32:18;;;;;;;8.47;4.17;;;;;;;9.05;89.22;100265.98;124639;1105;102054;-75
2023/11/16 07:34:53;;;;;;;10.00;3.93;;;;;;;9.07;87.56;100256.48;124526;1105;102543;-76
2023/11/16 07:37:28;;;;;;;9.97;4.00;;;;;;;9.12;87.43;100265.39;124360;1105;104194;-75
2023/11/16 07:40:00;;;;;;;7.23;3.57;;;;;;;9.14;86.30;100265.45;124490;1105;102774;-73
2023/11/16 07:42:33;;;;;;;9.30;4.10;;;;;;;9.16;86.34;100272.54;124421;1105;103652;-77
2023/11/16 07:45:09;;;;;;;7.37;3.50;;;;;;;9.16;84.22;100271.63;124751;1105;104195;-78
2023/11/16 07:47:44;;;;;;;6.00;3.67;;;;;;;9.17;83.24;100274.30;124604;1105;104348;-76
2023/11/16 07:50:18;;;;;;;6.63;3.80;;;;;;;9.17;83.64;100269.06;124522;1105;103056;-75
2023/11/16 07:52:53;;;;;;;5.80;3.33;;;;;;;9.20;81.12;100265.69;124578;1105;103967;-76
2023/11/16 07:55:28;;;;;;;5.23;3.43;;;;;;;9.20;80.79;100267.42;124674;1104;103503;-78
2023/11/16 07:57:58;;;;;;;;;;;;;;;9.22;77.94;100274.48;124706;1104;103966;-77
2023/11/16 08:00:37;;;;;;;5.85;3.40;;;;;;;9.22;80.84;100274.48;124599;1105;103258;-75
2023/11/16 08:06:12;;;;;;;5.13;3.50;;;;;;;9.25;77.80;100292.03;124916;1104;102635;-78
2023/11/16 08:08:56;;;;;;;7.13;3.83;;;;;;;9.24;77.06;100282.39;125075;1105;104217;-77
2023/11/16 08:11:29;;;;;;;6.73;3.90;;;;;;;9.28;73.82;100292.16;124735;1105;104211;-77
2023/11/16 08:14:06;;;;;;;6.27;3.87;;;;;;;9.33;76.46;100304.59;124732;1105;103469;-79
2023/11/16 08:16:39;;;;;;;6.33;3.80;;;;;;;9.27;73.73;100309.60;124898;1105;102592;-78
2023/11/16 08:19:12;;;;;;;5.43;3.53;;;;;;;9.24;74.99;100299.02;124792;1105;101867;-78
2023/11/16 08:21:45;;;;;;;8.45;3.72;;;;;;;9.32;75.55;100292.33;124571;1106;102064;-77
2023/11/16 08:24:19;;;;;;;7.83;3.95;;;;;;;9.42;76.22;100303.14;124647;1105;102444;-76
2023/11/16 08:26:52;;;;;;;8.23;3.80;;;;;;;9.46;72.49;100305.94;124640;1105;102140;-77
2023/11/16 08:29:27;;;;;;;7.80;3.90;;;;;;;9.48;73.88;100303.38;124512;1106;105040;-76
2023/11/16 08:32:00;;;;;;;10.97;3.80;;;;;;;9.56;74.49;100304.54;124670;1105;104198;-76
2023/11/16 08:34:33;;;;;;;8.57;3.93;;;;;;;9.65;75.04;100303.99;124724;1105;103695;-75
2023/11/16 08:37:10;;;;;;;5.67;3.93;;;;;;;9.62;75.73;100310.00;124826;1105;104084;-76
2023/11/16 08:39:42;;;;;;;8.80;3.70;;;;;;;9.66;74.50;100313.61;124693;1105;102090;-78
2023/11/16 08:42:23;;;;;;;7.53;3.50;;;;;;;9.74;74.29;100324.38;124531;1105;104415;-78
2023/11/16 08:44:56;;;;;;;12.03;4.43;;;;;;;9.83;74.30;100327.33;124764;1105;103626;-75
2023/11/16 08:47:30;;;;;;;7.17;4.10;;;;;;;9.94;74.79;100323.39;124771;1104;102417;-77
2023/11/16 08:50:06;;;;;;;7.50;4.27;;;;;;;10.03;75.04;100326.30;124734;1105;118556;-77
2023/11/16 08:52:42;;;;;;;6.97;3.60;;;;;;;10.08;71.42;100329.99;124744;1105;102383;-75
2023/11/16 08:55:16;;;;;;;6.53;3.70;;;;;;;10.00;72.67;100330.55;124663;1105;103887;-77
2023/11/16 08:57:50;;;;;;;8.07;3.50;;;;;;;9.91;71.24;100339.00;124768;1105;104182;-75
2023/11/16 09:00:27;;;;;;;9.85;3.83;;;;;;;9.92;67.93;100325.03;124660;1105;104044;-77
2023/11/16 09:03:00;;;;;;;5.50;3.30;;;;;;;9.85;68.69;100333.54;124795;1105;103880;-74
2023/11/16 09:05:32;;;;;;;;;;;;;;;9.85;69.79;100323.05;124639;1104;102894;-77
2023/11/16 09:08:05;;;;;;;7.60;3.70;;;;;;;9.86;69.27;100322.20;124624;1105;102624;-77
2023/11/16 09:10:42;;;;;;;6.77;3.30;;;;;;;9.84;68.43;100330.00;124719;1105;111832;-80
2023/11/16 09:13:13;;;;;;;4.77;3.30;;;;;;;9.85;70.80;100323.05;124692;1105;107217;-76
2023/11/16 09:15:46;;;;;;;7.90;3.53;;;;;;;9.95;70.16;100324.27;124477;1105;102716;-79
2023/11/16 09:18:23;;;;;;;4.70;3.00;;;;;;;9.92;68.00;100319.80;124599;1105;103154;-77
2023/11/16 09:20:58;;;;;;;6.50;3.30;;;;;;;9.85;66.57;100341.41;124711;1105;104702;-79
2023/11/16 09:23:33;;;;;;;7.73;3.30;;;;;;;9.86;67.62;100338.84;124829;1105;102611;-83
2023/11/16 09:26:09;;;;;;;6.60;3.40;;;;;;;9.93;67.74;100332.08;124836;1105;102575;-77
2023/11/16 09:28:44;;;;;;;5.53;3.60;;;;;;;9.96;65.70;100354.89;124745;1105;102425;-78
2023/11/16 09:31:16;;;;;;;5.27;3.40;;;;;;;9.89;67.01;100335.41;124658;1105;107029;-78
2023/11/16 09:33:54;;;;;;;6.30;3.60;;;;;;;9.91;64.96;100339.00;124723;1105;104195;-76
2023/11/16 09:36:50;;;;;;;7.73;3.33;;;;;;;9.93;65.14;100344.30;124994;1105;102587;-77
2023/11/16 09:39:25;;;;;;;5.77;3.13;;;;;;;9.90;64.54;100348.57;125449;1105;102759;-77
2023/11/16 09:42:02;;;;;;;5.60;3.33;;;;;;;9.91;64.56;100339.00;124840;1105;103536;-78
2023/11/16 09:44:40;;;;;;;7.03;3.20;;;;;;;9.97;65.71;100333.06;124726;1105;104312;-77
2023/11/16 09:47:29;;;;;;;6.43;3.20;;;;;;;10.01;62.21;100364.69;124905;1104;104211;-76
2023/11/16 09:50:02;;;;;;;7.50;3.33;;;;;;;9.87;64.17;100332.73;124671;1105;102999;-79
2023/11/16 09:52:39;;;;;;;5.43;3.27;;;;;;;9.88;62.89;100324.05;124643;1105;104894;-77
2023/11/16 09:55:13;;;;;;;6.27;3.33;;;;;;;9.90;62.13;100329.34;125213;1105;104193;-77
2023/11/16 09:57:45;;;;;;;5.13;2.93;;;;;;;9.88;64.25;100325.79;124761;1105;102781;-75
2023/11/16 10:00:23;;;;;;;10.13;2.87;;;;;;;9.91;62.56;100331.14;124714;1105;102567;-79
2023/11/16 10:02:58;;;;;;;8.23;3.40;;;;;;;9.89;61.74;100317.06;124853;1105;102410;-76
2023/11/16 10:05:34;;;;;;;7.60;3.27;;;;;;;9.89;62.88;100322.30;125452;1105;102469;-76
2023/11/16 10:08:09;;;;;;;4.93;2.90;;;;;;;9.93;61.86;100321.59;125360;1105;103480;-78
2023/11/16 10:10:51;;;;;;;9.90;3.70;;;;;;;9.89;59.65;100338.95;125063;1105;102403;-80
2023/11/16 10:13:25;;;;;;;5.37;2.90;;;;;;;9.80;60.55;100346.47;124584;1105;103270;-80
2023/11/16 10:16:02;;;;;;;7.53;3.30;;;;;;;9.73;61.96;100330.47;124833;1105;102106;-76
2023/11/16 10:18:34;;;;;;;4.73;2.90;;;;;;;9.67;59.57;100321.53;124640;1106;102157;-79
2023/11/16 10:21:08;;;;;;;4.67;2.92;;;;;;;9.63;60.24;100316.13;124763;1105;101933;-77
2023/11/16 10:23:40;;;;;;;5.97;3.23;;;;;;;9.62;62.12;100328.34;124690;1105;102955;-79
2023/11/16 10:26:14;;;;;;;7.37;3.00;;;;;;;9.65;60.44;100317.09;124924;1105;104179;-82
2023/11/16 10:28:53;;;;;;;5.50;2.80;;;;;;;9.71;60.83;100318.20;124795;1105;102409;-78
2023/11/16 10:31:33;;;;;;;8.40;3.20;;;;;;;9.77;60.59;100322.78;124864;1105;104249;-77
2023/11/16 10:34:07;;;;;;;6.33;3.07;;;;;;;9.84;62.03;100322.14;124835;1105;104260;-78
2023/11/16 10:36:42;;;;;;;7.17;2.90;;;;;;;9.90;60.62;100332.84;124800;1105;103591;-79
2023/11/16 10:39:14;;;;;;;5.70;2.90;;;;;;;9.86;59.71;100332.68;124798;1105;104240;-78
2023/11/16 10:42:02;;;;;;;4.53;3.00;;;;;;;9.82;60.92;100323.83;124931;1106;103056;-77
2023/11/16 10:44:42;;;;;;;3.37;2.13;;;;;;;9.89;57.40;100335.41;125004;1105;102319;-77
2023/11/16 10:47:20;;;;;;;4.27;2.80;;;;;;;9.88;58.16;100344.13;125875;1105;102417;-79
2023/11/16 10:49:53;;;;;;;4.43;2.70;;;;;;;9.85;56.24;100336.16;125856;1105;102026;-77
2023/11/16 10:52:29;;;;;;;3.33;2.50;;;;;;;9.87;57.68;100332.73;125812;1105;101924;-78
2023/11/16 10:55:07;;;;;;;3.90;2.47;;;;;;;9.89;55.06;100338.03;125802;1105;102403;-77
2023/11/16 10:57:43;;;;;;;3.90;2.67;;;;;;;9.87;54.74;100343.22;125601;1105;102757;-77
2023/11/16 11:00:20;;;;;;;5.25;2.55;;;;;;;9.85;55.77;100344.02;125790;1105;102141;-77
2023/11/16 11:02:53;;;;;;;4.03;2.40;;;;;;;9.84;54.79;100340.48;125558;1105;101829;-78
2023/11/16 11:05:25;;;;;;;5.97;2.40;;;;;;;9.87;55.59;100327.49;125701;1105;102233;-77
2023/11/16 11:08:00;;;;;;;5.60;1.90;;;;;;;9.86;52.39;100351.94;125853;1105;102662;-77
2023/11/16 11:10:37;;;;;;;3.90;2.10;;;;;;;9.84;53.93;100339.61;125888;1105;102068;-79
2023/11/16 11:13:10;;;;;;;4.53;2.20;;;;;;;9.85;54.26;100350.14;125800;1105;102504;-76
2023/11/16 11:15:48;;;;;;;3.42;2.50;;;;;;;9.82;51.03;100347.41;125932;1105;102400;-79
2023/11/16 11:18:28;;;;;;;2.43;1.73;;;;;;;9.80;51.81;100340.31;125771;1105;103125;-77
2023/11/16 11:21:14;;;;;;;6.00;2.17;;;;;;;9.79;52.30;100336.82;125606;1105;102062;-77
2023/11/16 11:23:58;;;;;;;3.17;2.13;;;;;;;9.79;53.56;100346.42;125712;1105;102212;-78
2023/11/16 11:26:48;;;;;;;2.83;2.20;;;;;;;9.78;51.15;100342.00;125774;1105;102946;-76
2023/11/16 11:29:23;;;;;;;4.70;1.90;;;;;;;9.75;52.13;100334.03;125692;1104;103252;-78
2023/11/16 11:32:03;;;;;;;2.70;1.90;;;;;;;9.73;51.90;100347.08;125583;1105;102023;-77
2023/11/16 11:34:36;;;;;;;2.90;2.30;;;;;;;9.67;51.61;100337.25;125766;1104;102270;-78
2023/11/16 11:37:10;;;;;;;3.47;2.33;;;;;;;9.65;50.87;100333.70;125771;1105;102489;-76
2023/11/16 11:39:45;;;;;;;3.53;2.30;;;;;;;9.58;51.29;100352.63;125804;1105;101902;-77
2023/11/16 11:42:19;;;;;;;3.50;2.47;;;;;;;9.50;50.76;100340.98;125755;1105;101889;-78
2023/11/16 11:44:57;;;;;;;3.23;2.50;;;;;;;9.46;50.56;100350.46;125786;1105;101912;-77
2023/11/16 11:47:35;;;;;;;5.73;3.00;;;;;;;9.45;52.21;100355.64;125605;1105;102627;-76